sensor_id;sensor_type;location;lat;lon;timestamp;pressure;altitude;pressure_sealevel;temperature;humidity
71638;BME280;59485;43.542;-5.676;2022-09-03T00:01:32;101432.75;;;18.56;74.06
71638;BME280;59485;43.542;-5.676;2022-09-03T00:04:09;101432.97;;;18.55;73.53
71638;BME280;59485;43.542;-5.676;2022-09-03T00:06:42;101427.19;;;18.56;73.79
71638;BME280;59485;43.542;-5.676;2022-09-03T00:11:54;101426.56;;;18.54;74.01
71638;BME280;59485;43.542;-5.676;2022-09-03T00:14:26;101429.56;;;18.53;74.17
71638;BME280;59485;43.542;-5.676;2022-09-03T00:16:56;101427.47;;;18.48;74.20
71638;BME280;59485;43.542;-5.676;2022-09-03T00:19:27;101423.22;;;18.46;74.06
71638;BME280;59485;43.542;-5.676;2022-09-03T00:22:23;101426.63;;;18.48;74.36
71638;BME280;59485;43.542;-5.676;2022-09-03T00:24:51;101400.06;;;18.33;74.21
71638;BME280;59485;43.542;-5.676;2022-09-03T00:27:23;101431.75;;;18.51;74.00
71638;BME280;59485;43.542;-5.676;2022-09-03T00:30:05;101422.78;;;18.49;73.84
71638;BME280;59485;43.542;-5.676;2022-09-03T00:32:49;101410.88;;;18.42;73.43
71638;BME280;59485;43.542;-5.676;2022-09-03T00:35:25;101418.31;;;18.48;73.56
71638;BME280;59485;43.542;-5.676;2022-09-03T00:37:52;101422.16;;;18.47;73.87
71638;BME280;59485;43.542;-5.676;2022-09-03T00:46:37;101409.56;;;18.44;73.95
71638;BME280;59485;43.542;-5.676;2022-09-03T00:54:49;101408.72;;;18.44;73.78
71638;BME280;59485;43.542;-5.676;2022-09-03T01:00:06;101410.63;;;18.43;74.06
71638;BME280;59485;43.542;-5.676;2022-09-03T01:20:11;101389.28;;;18.44;74.04
71638;BME280;59485;43.542;-5.676;2022-09-03T01:23:10;101385.44;;;18.45;74.27
71638;BME280;59485;43.542;-5.676;2022-09-03T01:28:47;101380.94;;;18.44;74.64
71638;BME280;59485;43.542;-5.676;2022-09-03T01:42:22;101362.00;;;18.41;75.09
71638;BME280;59485;43.542;-5.676;2022-09-03T01:45:02;101378.16;;;18.44;75.09
71638;BME280;59485;43.542;-5.676;2022-09-03T01:52:48;101358.81;;;18.37;74.89
71638;BME280;59485;43.542;-5.676;2022-09-03T01:55:31;101374.31;;;18.45;75.20
71638;BME280;59485;43.542;-5.676;2022-09-03T02:00:33;101347.06;;;18.35;74.59
71638;BME280;59485;43.542;-5.676;2022-09-03T02:03:06;101356.22;;;18.42;74.96
71638;BME280;59485;43.542;-5.676;2022-09-03T02:05:32;101347.25;;;18.40;74.60
71638;BME280;59485;43.542;-5.676;2022-09-03T02:08:06;101340.22;;;18.37;74.64
71638;BME280;59485;43.542;-5.676;2022-09-03T02:13:10;101336.59;;;18.37;74.60
71638;BME280;59485;43.542;-5.676;2022-09-03T02:15:39;101342.56;;;18.41;74.82
71638;BME280;59485;43.542;-5.676;2022-09-03T02:18:09;101330.69;;;18.33;74.67
71638;BME280;59485;43.542;-5.676;2022-09-03T02:20:38;101333.38;;;18.40;74.67
71638;BME280;59485;43.542;-5.676;2022-09-03T02:23:04;101337.44;;;18.37;74.53
71638;BME280;59485;43.542;-5.676;2022-09-03T02:25:37;101335.53;;;18.38;74.74
71638;BME280;59485;43.542;-5.676;2022-09-03T02:28:05;101322.09;;;18.35;74.58
71638;BME280;59485;43.542;-5.676;2022-09-03T02:30:31;101328.69;;;18.41;74.74
71638;BME280;59485;43.542;-5.676;2022-09-03T02:32:58;101341.22;;;18.43;74.73
71638;BME280;59485;43.542;-5.676;2022-09-03T02:35:24;101320.16;;;18.35;74.86
71638;BME280;59485;43.542;-5.676;2022-09-03T02:37:50;101302.59;;;18.23;75.14
71638;BME280;59485;43.542;-5.676;2022-09-03T02:40:15;101331.22;;;18.42;75.18
71638;BME280;59485;43.542;-5.676;2022-09-03T02:42:41;101307.84;;;18.31;75.30
71638;BME280;59485;43.542;-5.676;2022-09-03T02:45:26;101317.03;;;18.32;75.36
71638;BME280;59485;43.542;-5.676;2022-09-03T02:47:55;101325.28;;;18.38;75.25
71638;BME280;59485;43.542;-5.676;2022-09-03T02:50:21;101322.50;;;18.38;75.52
71638;BME280;59485;43.542;-5.676;2022-09-03T02:52:47;101326.34;;;18.37;75.32
71638;BME280;59485;43.542;-5.676;2022-09-03T02:55:12;101330.41;;;18.35;74.99
71638;BME280;59485;43.542;-5.676;2022-09-03T02:57:38;101317.25;;;18.30;75.26
71638;BME280;59485;43.542;-5.676;2022-09-03T03:00:04;101316.63;;;18.28;75.13
71638;BME280;59485;43.542;-5.676;2022-09-03T03:02:30;101316.16;;;18.31;75.59
71638;BME280;59485;43.542;-5.676;2022-09-03T03:04:56;101318.31;;;18.29;75.45
71638;BME280;59485;43.542;-5.676;2022-09-03T03:07:23;101315.97;;;18.26;75.15
71638;BME280;59485;43.542;-5.676;2022-09-03T03:09:48;101311.75;;;18.24;75.80
71638;BME280;59485;43.542;-5.676;2022-09-03T03:12:14;101310.44;;;18.26;76.03
71638;BME280;59485;43.542;-5.676;2022-09-03T03:14:42;101306.25;;;18.17;76.06
71638;BME280;59485;43.542;-5.676;2022-09-03T03:17:08;101302.88;;;18.15;76.07
71638;BME280;59485;43.542;-5.676;2022-09-03T03:19:33;101299.91;;;18.10;75.79
71638;BME280;59485;43.542;-5.676;2022-09-03T03:21:59;101308.16;;;18.17;75.97
71638;BME280;59485;43.542;-5.676;2022-09-03T03:24:25;101309.44;;;18.21;76.24
71638;BME280;59485;43.542;-5.676;2022-09-03T03:26:50;101297.91;;;18.17;76.22
71638;BME280;59485;43.542;-5.676;2022-09-03T03:29:19;101307.09;;;18.18;75.90
71638;BME280;59485;43.542;-5.676;2022-09-03T03:31:44;101301.81;;;18.16;75.89
71638;BME280;59485;43.542;-5.676;2022-09-03T03:34:10;101293.28;;;18.11;75.97
71638;BME280;59485;43.542;-5.676;2022-09-03T03:36:36;101285.88;;;18.05;75.87
71638;BME280;59485;43.542;-5.676;2022-09-03T03:39:02;101302.88;;;18.15;75.76
71638;BME280;59485;43.542;-5.676;2022-09-03T03:41:30;101304.81;;;18.15;75.64
71638;BME280;59485;43.542;-5.676;2022-09-03T03:43:58;101289.50;;;18.06;75.98
71638;BME280;59485;43.542;-5.676;2022-09-03T03:46:28;101307.78;;;18.13;75.73
71638;BME280;59485;43.542;-5.676;2022-09-03T03:48:54;101307.78;;;18.13;75.82
71638;BME280;59485;43.542;-5.676;2022-09-03T03:51:19;101286.75;;;18.06;75.88
71638;BME280;59485;43.542;-5.676;2022-09-03T03:53:45;101309.50;;;18.14;75.78
71638;BME280;59485;43.542;-5.676;2022-09-03T03:56:13;101298.63;;;18.13;75.81
71638;BME280;59485;43.542;-5.676;2022-09-03T03:58:40;101305.25;;;18.12;75.55
71638;BME280;59485;43.542;-5.676;2022-09-03T04:01:12;101309.09;;;18.11;75.74
71638;BME280;59485;43.542;-5.676;2022-09-03T04:03:38;101298.22;;;18.09;75.85
71638;BME280;59485;43.542;-5.676;2022-09-03T04:06:05;101300.13;;;18.09;75.82
71638;BME280;59485;43.542;-5.676;2022-09-03T04:08:34;101298.91;;;18.05;75.74
71638;BME280;59485;43.542;-5.676;2022-09-03T04:11:02;101302.53;;;18.05;75.94
71638;BME280;59485;43.542;-5.676;2022-09-03T04:13:35;101292.72;;;18.03;75.90
71638;BME280;59485;43.542;-5.676;2022-09-03T04:18:27;101288.94;;;17.97;75.97
71638;BME280;59485;43.542;-5.676;2022-09-03T04:20:52;101280.63;;;17.97;76.07
71638;BME280;59485;43.542;-5.676;2022-09-03T04:23:23;101289.81;;;17.97;75.99
71638;BME280;59485;43.542;-5.676;2022-09-03T04:25:52;101274.91;;;17.92;76.24
71638;BME280;59485;43.542;-5.676;2022-09-03T04:28:18;101250.06;;;17.79;76.20
71638;BME280;59485;43.542;-5.676;2022-09-03T04:30:43;101286.41;;;17.95;76.16
71638;BME280;59485;43.542;-5.676;2022-09-03T04:33:08;101284.69;;;17.94;75.93
71638;BME280;59485;43.542;-5.676;2022-09-03T04:35:34;101271.25;;;17.91;76.10
71638;BME280;59485;43.542;-5.676;2022-09-03T04:37:59;101270.88;;;17.88;76.29
71638;BME280;59485;43.542;-5.676;2022-09-03T04:40:26;101255.97;;;17.82;76.13
71638;BME280;59485;43.542;-5.676;2022-09-03T04:42:56;101263.88;;;17.85;76.45
71638;BME280;59485;43.542;-5.676;2022-09-03T04:45:22;101272.13;;;17.92;76.20
71638;BME280;59485;43.542;-5.676;2022-09-03T04:48:01;101274.59;;;18.00;76.54
71638;BME280;59485;43.542;-5.676;2022-09-03T04:50:27;101274.59;;;18.00;77.05
71638;BME280;59485;43.542;-5.676;2022-09-03T04:52:54;101271.69;;;17.95;77.20
71638;BME280;59485;43.542;-5.676;2022-09-03T04:55:24;101259.50;;;17.96;77.42
71638;BME280;59485;43.542;-5.676;2022-09-03T04:57:50;101266.56;;;17.92;77.29
71638;BME280;59485;43.542;-5.676;2022-09-03T05:00:15;101255.25;;;17.93;77.47
71638;BME280;59485;43.542;-5.676;2022-09-03T05:02:43;101266.50;;;17.98;77.14
71638;BME280;59485;43.542;-5.676;2022-09-03T05:05:11;101265.69;;;17.98;77.17
71638;BME280;59485;43.542;-5.676;2022-09-03T05:07:37;101249.31;;;17.90;76.86
71638;BME280;59485;43.542;-5.676;2022-09-03T05:10:05;101257.38;;;17.98;77.37
71638;BME280;59485;43.542;-5.676;2022-09-03T05:12:34;101226.72;;;17.86;77.11
71638;BME280;59485;43.542;-5.676;2022-09-03T05:15:01;101248.56;;;18.01;77.29
71638;BME280;59485;43.542;-5.676;2022-09-03T05:17:29;101250.72;;;17.99;77.46
71638;BME280;59485;43.542;-5.676;2022-09-03T05:19:55;101254.75;;;18.03;77.46
71638;BME280;59485;43.542;-5.676;2022-09-03T05:22:20;101249.84;;;17.98;77.51
71638;BME280;59485;43.542;-5.676;2022-09-03T05:24:47;101236.28;;;17.90;77.41
71638;BME280;59485;43.542;-5.676;2022-09-03T05:27:15;101263.06;;;18.03;77.76
71638;BME280;59485;43.542;-5.676;2022-09-03T05:29:44;101259.66;;;18.01;77.65
71638;BME280;59485;43.542;-5.676;2022-09-03T05:32:13;101262.44;;;18.01;77.68
71638;BME280;59485;43.542;-5.676;2022-09-03T05:34:40;101257.09;;;17.99;77.75
71638;BME280;59485;43.542;-5.676;2022-09-03T05:37:06;101247.16;;;17.92;77.89
71638;BME280;59485;43.542;-5.676;2022-09-03T05:39:31;101250.84;;;17.86;78.21
71638;BME280;59485;43.542;-5.676;2022-09-03T05:41:57;101264.88;;;17.91;78.06
71638;BME280;59485;43.542;-5.676;2022-09-03T05:44:22;101250.06;;;17.79;78.29
71638;BME280;59485;43.542;-5.676;2022-09-03T05:46:48;101246.94;;;17.69;78.04
71638;BME280;59485;43.542;-5.676;2022-09-03T05:49:16;101270.94;;;17.81;78.27
71638;BME280;59485;43.542;-5.676;2022-09-03T05:51:42;101263.28;;;17.77;78.26
71638;BME280;59485;43.542;-5.676;2022-09-03T05:54:09;101272.47;;;17.77;78.44
71638;BME280;59485;43.542;-5.676;2022-09-03T05:56:38;101253.56;;;17.68;78.92
71638;BME280;59485;43.542;-5.676;2022-09-03T05:59:06;101260.34;;;17.72;79.68
71638;BME280;59485;43.542;-5.676;2022-09-03T06:01:38;101272.53;;;17.71;79.72
71638;BME280;59485;43.542;-5.676;2022-09-03T06:04:06;101271.91;;;17.69;79.64
71638;BME280;59485;43.542;-5.676;2022-09-03T06:06:34;101272.34;;;17.66;80.13
71638;BME280;59485;43.542;-5.676;2022-09-03T06:09:03;101264.03;;;17.59;80.53
71638;BME280;59485;43.542;-5.676;2022-09-03T06:11:33;101273.66;;;17.56;80.63
71638;BME280;59485;43.542;-5.676;2022-09-03T06:14:01;101269.66;;;17.52;81.03
71638;BME280;59485;43.542;-5.676;2022-09-03T06:16:28;101261.75;;;17.49;81.07
71638;BME280;59485;43.542;-5.676;2022-09-03T06:18:54;101260.50;;;17.45;81.54
71638;BME280;59485;43.542;-5.676;2022-09-03T06:21:20;101262.25;;;17.40;81.59
71638;BME280;59485;43.542;-5.676;2022-09-03T06:23:51;101264.81;;;17.41;81.79
71638;BME280;59485;43.542;-5.676;2022-09-03T06:26:17;101249.31;;;17.27;81.93
71638;BME280;59485;43.542;-5.676;2022-09-03T06:28:43;101259.75;;;17.32;82.23
71638;BME280;59485;43.542;-5.676;2022-09-03T06:31:15;101264.88;;;17.28;81.75
71638;BME280;59485;43.542;-5.676;2022-09-03T06:33:42;101254.28;;;17.18;82.14
71638;BME280;59485;43.542;-5.676;2022-09-03T06:36:10;101279.81;;;17.27;81.95
71638;BME280;59485;43.542;-5.676;2022-09-03T06:38:36;101276.84;;;17.22;82.09
71638;BME280;59485;43.542;-5.676;2022-09-03T06:41:08;101284.09;;;17.23;82.25
71638;BME280;59485;43.542;-5.676;2022-09-03T06:43:36;101272.44;;;17.14;82.40
71638;BME280;59485;43.542;-5.676;2022-09-03T06:48:31;101283.91;;;17.18;82.37
71638;BME280;59485;43.542;-5.676;2022-09-03T06:51:01;101288.16;;;17.20;82.39
71638;BME280;59485;43.542;-5.676;2022-09-03T06:53:32;101285.38;;;17.20;82.06
71638;BME280;59485;43.542;-5.676;2022-09-03T06:56:03;101277.13;;;17.14;81.92
71638;BME280;59485;43.542;-5.676;2022-09-03T06:58:36;101286.47;;;17.19;81.77
71638;BME280;59485;43.542;-5.676;2022-09-03T07:01:07;101284.97;;;17.23;81.82
71638;BME280;59485;43.542;-5.676;2022-09-03T07:03:38;101280.69;;;17.21;81.49
71638;BME280;59485;43.542;-5.676;2022-09-03T07:06:07;101285.31;;;17.34;81.56
71638;BME280;59485;43.542;-5.676;2022-09-03T07:08:33;101286.34;;;17.39;80.80
71638;BME280;59485;43.542;-5.676;2022-09-03T07:10:59;101286.34;;;17.39;81.05
71638;BME280;59485;43.542;-5.676;2022-09-03T07:13:30;101285.69;;;17.44;81.04
71638;BME280;59485;43.542;-5.676;2022-09-03T07:16:02;101292.88;;;17.51;80.71
71638;BME280;59485;43.542;-5.676;2022-09-03T07:18:29;101295.81;;;17.56;80.30
71638;BME280;59485;43.542;-5.676;2022-09-03T07:21:04;101295.81;;;17.63;79.44
71638;BME280;59485;43.542;-5.676;2022-09-03T07:23:31;101294.94;;;17.69;79.87
71638;BME280;59485;43.542;-5.676;2022-09-03T07:25:59;101276.63;;;17.61;79.72
71638;BME280;59485;43.542;-5.676;2022-09-03T07:28:27;101268.06;;;17.63;78.91
71638;BME280;59485;43.542;-5.676;2022-09-03T07:30:53;101300.34;;;17.82;78.23
71638;BME280;59485;43.542;-5.676;2022-09-03T07:33:20;101304.63;;;17.85;79.10
71638;BME280;59485;43.542;-5.676;2022-09-03T07:35:46;101283.94;;;17.81;79.09
71638;BME280;59485;43.542;-5.676;2022-09-03T07:38:20;101288.75;;;17.92;78.66
71638;BME280;59485;43.542;-5.676;2022-09-03T07:40:47;101291.31;;;17.93;78.27
71638;BME280;59485;43.542;-5.676;2022-09-03T07:43:13;101288.94;;;17.97;77.55
71638;BME280;59485;43.542;-5.676;2022-09-03T07:45:38;101280.16;;;18.00;77.99
71638;BME280;59485;43.542;-5.676;2022-09-03T07:48:04;101275.22;;;18.02;77.42
71638;BME280;59485;43.542;-5.676;2022-09-03T07:50:30;101297.78;;;18.12;76.94
71638;BME280;59485;43.542;-5.676;2022-09-03T07:53:02;101294.56;;;18.15;76.65
71638;BME280;59485;43.542;-5.676;2022-09-03T07:55:27;101296.41;;;18.21;75.77
71638;BME280;59485;43.542;-5.676;2022-09-03T07:57:56;101297.88;;;18.24;76.13
71638;BME280;59485;43.542;-5.676;2022-09-03T08:00:24;101295.09;;;18.24;76.29
71638;BME280;59485;43.542;-5.676;2022-09-03T08:02:51;101296.56;;;18.26;75.89
71638;BME280;59485;43.542;-5.676;2022-09-03T08:05:17;101299.50;;;18.31;76.29
71638;BME280;59485;43.542;-5.676;2022-09-03T08:07:47;101291.19;;;18.31;76.04
71638;BME280;59485;43.542;-5.676;2022-09-03T08:10:14;101290.25;;;18.37;75.79
71638;BME280;59485;43.542;-5.676;2022-09-03T08:12:41;101304.91;;;18.45;75.35
71638;BME280;59485;43.542;-5.676;2022-09-03T08:15:07;101301.84;;;18.53;74.76
71638;BME280;59485;43.542;-5.676;2022-09-03T08:17:33;101271.56;;;18.26;73.50
71638;BME280;59485;43.542;-5.676;2022-09-03T08:19:58;101294.09;;;18.61;73.70
71638;BME280;59485;43.542;-5.676;2022-09-03T08:22:25;101297.03;;;18.66;73.25
71638;BME280;59485;43.542;-5.676;2022-09-03T08:24:50;101294.94;;;18.62;72.11
71638;BME280;59485;43.542;-5.676;2022-09-03T08:27:20;101298.25;;;18.70;71.03
71638;BME280;59485;43.542;-5.676;2022-09-03T08:29:49;101301.81;;;18.78;70.35
71638;BME280;59485;43.542;-5.676;2022-09-03T08:32:15;101298.34;;;18.82;69.74
71638;BME280;59485;43.542;-5.676;2022-09-03T08:34:40;101294.56;;;18.77;63.21
71638;BME280;59485;43.542;-5.676;2022-09-03T08:37:06;101297.78;;;18.92;63.12
71638;BME280;59485;43.542;-5.676;2022-09-03T08:39:34;101300.47;;;18.98;61.98
71638;BME280;59485;43.542;-5.676;2022-09-03T08:42:09;101303.44;;;19.03;61.41
71638;BME280;59485;43.542;-5.676;2022-09-03T08:44:49;101299.25;;;19.13;61.04
71638;BME280;59485;43.542;-5.676;2022-09-03T08:47:42;101284.81;;;19.04;59.77
71638;BME280;59485;43.542;-5.676;2022-09-03T08:50:25;101300.84;;;19.20;59.28
71638;BME280;59485;43.542;-5.676;2022-09-03T08:52:58;101295.81;;;19.29;58.35
71638;BME280;59485;43.542;-5.676;2022-09-03T08:55:34;101297.66;;;19.35;58.20
71638;BME280;59485;43.542;-5.676;2022-09-03T08:58:20;101272.09;;;19.26;56.08
71638;BME280;59485;43.542;-5.676;2022-09-03T09:06:51;101304.88;;;19.54;55.73
71638;BME280;59485;43.542;-5.676;2022-09-03T09:14:49;101317.16;;;19.65;53.26
71638;BME280;59485;43.542;-5.676;2022-09-03T09:20:22;101308.00;;;19.76;54.28
71638;BME280;59485;43.542;-5.676;2022-09-03T09:22:58;101318.13;;;19.70;56.94
71638;BME280;59485;43.542;-5.676;2022-09-03T09:25:26;101321.91;;;19.76;54.37
71638;BME280;59485;43.542;-5.676;2022-09-03T09:30:36;101314.56;;;19.93;54.08
71638;BME280;59485;43.542;-5.676;2022-09-03T09:33:02;101317.34;;;20.05;53.16
71638;BME280;59485;43.542;-5.676;2022-09-03T09:35:27;101312.16;;;20.08;53.43
71638;BME280;59485;43.542;-5.676;2022-09-03T09:37:55;101302.59;;;20.16;52.40
71638;BME280;59485;43.542;-5.676;2022-09-03T09:40:29;101321.25;;;20.27;52.59
71638;BME280;59485;43.542;-5.676;2022-09-03T09:45:38;101326.34;;;20.30;53.63
71638;BME280;59485;43.542;-5.676;2022-09-03T09:48:12;101325.25;;;20.31;51.64
71638;BME280;59485;43.542;-5.676;2022-09-03T09:50:41;101330.25;;;20.41;51.24
71638;BME280;59485;43.542;-5.676;2022-09-03T09:53:08;101319.72;;;20.43;52.81
71638;BME280;59485;43.542;-5.676;2022-09-03T09:55:55;101330.72;;;20.49;53.32
71638;BME280;59485;43.542;-5.676;2022-09-03T09:58:24;101337.91;;;20.57;51.13
71638;BME280;59485;43.542;-5.676;2022-09-03T10:03:23;101327.47;;;20.64;49.99
71638;BME280;59485;43.542;-5.676;2022-09-03T10:06:07;101324.91;;;20.63;50.84
71638;BME280;59485;43.542;-5.676;2022-09-03T10:09:13;101312.94;;;20.62;51.01
71638;BME280;59485;43.542;-5.676;2022-09-03T10:11:43;101326.00;;;20.73;51.13
71638;BME280;59485;43.542;-5.676;2022-09-03T10:14:18;101305.19;;;20.64;51.59
71638;BME280;59485;43.542;-5.676;2022-09-03T10:16:51;101310.13;;;20.74;54.35
71638;BME280;59485;43.542;-5.676;2022-09-03T10:19:22;101294.16;;;20.57;54.61
71638;BME280;59485;43.542;-5.676;2022-09-03T10:22:02;101294.16;;;20.57;55.75
71638;BME280;59485;43.542;-5.676;2022-09-03T10:24:51;101311.84;;;20.63;54.82
71638;BME280;59485;43.542;-5.676;2022-09-03T10:27:20;101308.81;;;20.65;54.21
71638;BME280;59485;43.542;-5.676;2022-09-03T10:29:50;101305.41;;;20.74;54.34
71638;BME280;59485;43.542;-5.676;2022-09-03T10:35:31;101299.69;;;20.81;55.46
71638;BME280;59485;43.542;-5.676;2022-09-03T10:38:19;101294.50;;;20.84;56.57
71638;BME280;59485;43.542;-5.676;2022-09-03T10:44:03;101296.25;;;21.02;56.41
71638;BME280;59485;43.542;-5.676;2022-09-03T10:50:13;101274.66;;;21.09;52.81
71638;BME280;59485;43.542;-5.676;2022-09-03T11:01:50;101264.38;;;20.98;54.64
71638;BME280;59485;43.542;-5.676;2022-09-03T11:05:13;101248.53;;;20.87;56.18
71638;BME280;59485;43.542;-5.676;2022-09-03T11:07:24;101267.31;;;20.91;58.83
71638;BME280;59485;43.542;-5.676;2022-09-03T11:09:56;101257.72;;;20.99;54.34
71638;BME280;59485;43.542;-5.676;2022-09-03T11:12:37;101256.84;;;21.10;52.56
71638;BME280;59485;43.542;-5.676;2022-09-03T11:15:11;101255.22;;;21.14;51.88
71638;BME280;59485;43.542;-5.676;2022-09-03T11:20:26;101245.16;;;21.25;49.83
71638;BME280;59485;43.542;-5.676;2022-09-03T11:23:01;101250.97;;;21.23;50.28
71638;BME280;59485;43.542;-5.676;2022-09-03T11:25:34;101253.63;;;21.30;51.26
71638;BME280;59485;43.542;-5.676;2022-09-03T11:30:54;101242.97;;;21.55;49.62
71638;BME280;59485;43.542;-5.676;2022-09-03T11:33:31;101236.66;;;21.48;50.12
71638;BME280;59485;43.542;-5.676;2022-09-03T11:36:00;101238.53;;;21.43;50.30
71638;BME280;59485;43.542;-5.676;2022-09-03T11:38:30;101236.03;;;21.29;49.52
71638;BME280;59485;43.542;-5.676;2022-09-03T11:41:33;101235.06;;;21.36;50.59
71638;BME280;59485;43.542;-5.676;2022-09-03T11:44:16;101238.25;;;21.27;50.49
71638;BME280;59485;43.542;-5.676;2022-09-03T11:46:53;101245.59;;;21.33;51.32
71638;BME280;59485;43.542;-5.676;2022-09-03T11:49:30;101221.75;;;21.26;50.31
71638;BME280;59485;43.542;-5.676;2022-09-03T11:52:02;101244.50;;;21.34;49.40
71638;BME280;59485;43.542;-5.676;2022-09-03T11:54:32;101240.97;;;21.39;50.52
71638;BME280;59485;43.542;-5.676;2022-09-03T11:57:13;101249.00;;;21.36;51.01
71638;BME280;59485;43.542;-5.676;2022-09-03T11:59:42;101238.81;;;21.29;49.96
71638;BME280;59485;43.542;-5.676;2022-09-03T12:02:27;101234.84;;;21.25;50.38
71638;BME280;59485;43.542;-5.676;2022-09-03T12:18:30;101241.97;;;21.33;53.83
71638;BME280;59485;43.542;-5.676;2022-09-03T12:26:03;101248.13;;;21.18;50.90
71638;BME280;59485;43.542;-5.676;2022-09-03T12:28:29;101227.22;;;21.21;51.34
71638;BME280;59485;43.542;-5.676;2022-09-03T12:31:06;101237.41;;;21.27;49.74
71638;BME280;59485;43.542;-5.676;2022-09-03T12:33:33;101229.97;;;21.32;48.28
71638;BME280;59485;43.542;-5.676;2022-09-03T12:36:00;101224.22;;;21.39;49.88
71638;BME280;59485;43.542;-5.676;2022-09-03T12:38:28;101231.16;;;21.37;49.69
71638;BME280;59485;43.542;-5.676;2022-09-03T12:40:56;101214.28;;;21.43;51.31
71638;BME280;59485;43.542;-5.676;2022-09-03T12:43:27;101225.63;;;21.53;51.32
71638;BME280;59485;43.542;-5.676;2022-09-03T12:45:53;101227.81;;;21.51;50.19
71638;BME280;59485;43.542;-5.676;2022-09-03T12:48:20;101223.56;;;21.49;49.38
71638;BME280;59485;43.542;-5.676;2022-09-03T12:50:47;101225.25;;;21.50;51.97
71638;BME280;59485;43.542;-5.676;2022-09-03T12:53:23;101212.16;;;21.50;53.75
71638;BME280;59485;43.542;-5.676;2022-09-03T12:55:54;101222.81;;;21.53;52.42
71638;BME280;59485;43.542;-5.676;2022-09-03T12:58:24;101218.59;;;21.51;52.47
71638;BME280;59485;43.542;-5.676;2022-09-03T13:01:04;101223.66;;;21.54;51.22
71638;BME280;59485;43.542;-5.676;2022-09-03T13:07:00;101229.44;;;21.64;53.34
71638;BME280;59485;43.542;-5.676;2022-09-03T13:09:28;101229.75;;;21.67;54.48
71638;BME280;59485;43.542;-5.676;2022-09-03T13:11:55;101237.22;;;21.79;55.91
71638;BME280;59485;43.542;-5.676;2022-09-03T13:14:24;101224.09;;;21.79;54.14
71638;BME280;59485;43.542;-5.676;2022-09-03T13:25:15;101215.50;;;21.97;52.23
71638;BME280;59485;43.542;-5.676;2022-09-03T13:30:21;101195.78;;;22.04;53.49
71638;BME280;59485;43.542;-5.676;2022-09-03T13:46:25;101209.28;;;22.51;54.09
71638;BME280;59485;43.542;-5.676;2022-09-03T13:49:20;101209.63;;;22.54;52.86
71638;BME280;59485;43.542;-5.676;2022-09-03T13:52:20;101198.31;;;22.44;53.39
71638;BME280;59485;43.542;-5.676;2022-09-03T13:54:56;101196.69;;;22.48;56.00
71638;BME280;59485;43.542;-5.676;2022-09-03T14:00:01;101194.41;;;22.67;55.75
71638;BME280;59485;43.542;-5.676;2022-09-03T14:02:36;101204.31;;;22.74;54.70
71638;BME280;59485;43.542;-5.676;2022-09-03T14:08:51;101199.50;;;22.92;54.97
71638;BME280;59485;43.542;-5.676;2022-09-03T14:11:27;101203.13;;;22.92;54.10
71638;BME280;59485;43.542;-5.676;2022-09-03T14:20:02;101200.69;;;22.96;53.11
71638;BME280;59485;43.542;-5.676;2022-09-03T14:25:18;101167.34;;;22.89;52.82
71638;BME280;59485;43.542;-5.676;2022-09-03T14:27:44;101191.94;;;23.14;49.67
71638;BME280;59485;43.542;-5.676;2022-09-03T14:30:43;101194.13;;;23.12;51.38
71638;BME280;59485;43.542;-5.676;2022-09-03T14:44:11;101162.88;;;22.93;48.66
71638;BME280;59485;43.542;-5.676;2022-09-03T15:00:16;101166.66;;;23.04;51.36
71638;BME280;59485;43.542;-5.676;2022-09-03T15:05:43;101156.09;;;23.11;50.27
71638;BME280;59485;43.542;-5.676;2022-09-03T15:08:31;101150.38;;;23.28;50.11
71638;BME280;59485;43.542;-5.676;2022-09-03T15:11:04;101162.38;;;23.50;49.22
71638;BME280;59485;43.542;-5.676;2022-09-03T15:13:44;101150.91;;;23.51;49.29
71638;BME280;59485;43.542;-5.676;2022-09-03T15:16:28;101157.72;;;23.61;47.77
71638;BME280;59485;43.542;-5.676;2022-09-03T15:19:11;101152.25;;;23.81;48.05
71638;BME280;59485;43.542;-5.676;2022-09-03T15:35:29;101140.81;;;24.97;46.46
71638;BME280;59485;43.542;-5.676;2022-09-03T15:38:07;101135.25;;;25.27;44.83
71638;BME280;59485;43.542;-5.676;2022-09-03T15:45:51;101124.56;;;25.90;43.76
71638;BME280;59485;43.542;-5.676;2022-09-03T15:50:54;101116.31;;;26.94;41.83
71638;BME280;59485;43.542;-5.676;2022-09-03T15:53:32;101124.03;;;26.73;41.11
71638;BME280;59485;43.542;-5.676;2022-09-03T15:58:42;101105.84;;;27.04;39.56
71638;BME280;59485;43.542;-5.676;2022-09-03T16:03:57;101115.91;;;27.54;39.17
71638;BME280;59485;43.542;-5.676;2022-09-03T16:08:58;101105.06;;;27.33;39.22
71638;BME280;59485;43.542;-5.676;2022-09-03T16:11:47;101102.34;;;27.85;38.84
71638;BME280;59485;43.542;-5.676;2022-09-03T16:14:40;101112.78;;;27.85;38.18
71638;BME280;59485;43.542;-5.676;2022-09-03T16:17:42;101103.84;;;27.78;38.86
71638;BME280;59485;43.542;-5.676;2022-09-03T16:20:21;101109.72;;;28.34;37.93
71638;BME280;59485;43.542;-5.676;2022-09-03T16:22:56;101102.41;;;28.33;37.87
71638;BME280;59485;43.542;-5.676;2022-09-03T16:28:31;101093.69;;;28.29;37.26
71638;BME280;59485;43.542;-5.676;2022-09-03T16:50:37;101092.53;;;28.97;35.75
71638;BME280;59485;43.542;-5.676;2022-09-03T16:53:14;101090.00;;;29.14;35.35
71638;BME280;59485;43.542;-5.676;2022-09-03T16:55:56;101082.44;;;28.91;34.90
71638;BME280;59485;43.542;-5.676;2022-09-03T17:01:31;101096.56;;;28.48;36.60
71638;BME280;59485;43.542;-5.676;2022-09-03T17:12:32;101086.38;;;28.28;37.70
71638;BME280;59485;43.542;-5.676;2022-09-03T17:20:14;101073.06;;;28.77;36.10
71638;BME280;59485;43.542;-5.676;2022-09-03T17:25:36;101080.78;;;27.99;37.60
71638;BME280;59485;43.542;-5.676;2022-09-03T17:41:51;101073.28;;;28.14;37.86
71638;BME280;59485;43.542;-5.676;2022-09-03T17:50:23;101064.31;;;27.83;37.77
71638;BME280;59485;43.542;-5.676;2022-09-03T17:52:56;101061.72;;;27.91;37.74